Time;durP1;ratioP1;P1;durP2;ratioP2;P2;SDS_P1;SDS_P2;PMS_P1;PMS_P2;Temp;Humidity;BMP_temperature;BMP_pressure;BME280_temperature;BME280_humidity;BME280_pressure;Samples;Min_cycle;Max_cycle;Signal;HPM_P1;HPM_P2
2022/02/14 00:02:15;;;;;;;6.50;2.90;;;;;;;;;;5052678;28;20198;-84
2022/02/14 00:04:43;;;;;;;7.37;3.50;;;;;;;;;;5052758;28;20240;-84
2022/02/14 00:07:10;;;;;;;5.00;2.77;;;;;;;;;;5052986;28;20193;-83
2022/02/14 00:09:39;;;;;;;3.63;3.17;;;;;;;;;;5052693;28;20288;-83
2022/02/14 00:12:07;;;;;;;7.77;2.97;;;;;;;;;;5052523;28;20289;-83
2022/02/14 00:14:34;;;;;;;5.23;3.63;;;;;;;;;;5052587;28;20197;-83
2022/02/14 00:17:02;;;;;;;5.23;3.70;;;;;;;;;;5052895;28;20198;-83
2022/02/14 00:19:29;;;;;;;3.13;2.57;;;;;;;;;;5052725;28;20204;-83
2022/02/14 00:21:57;;;;;;;4.27;3.00;;;;;;;;;;5052977;28;20281;-82
2022/02/14 00:24:24;;;;;;;5.63;2.63;;;;;;;;;;5052726;28;20222;-83
2022/02/14 00:26:53;;;;;;;3.73;2.57;;;;;;;;;;5052356;28;20200;-82
2022/02/14 00:29:21;;;;;;;4.13;2.53;;;;;;;;;;5053103;28;20575;-82
2022/02/14 00:31:49;;;;;;;3.43;3.07;;;;;;;;;;5052257;28;20200;-82
2022/02/14 00:34:16;;;;;;;2.67;2.40;;;;;;;;;;5052193;28;20197;-82
2022/02/14 00:36:44;;;;;;;5.30;2.70;;;;;;;;;;5052522;28;20285;-82
2022/02/14 00:39:11;;;;;;;5.17;2.33;;;;;;;;;;5052441;28;20642;-82
2022/02/14 00:41:38;;;;;;;3.47;2.27;;;;;;;;;;5052447;28;20285;-82
2022/02/14 00:44:07;;;;;;;3.73;2.73;;;;;;;;;;5052010;28;20232;-82
2022/02/14 00:46:34;;;;;;;7.57;4.40;;;;;;;;;;5051159;28;20289;-82
2022/02/14 00:49:02;;;;;;;6.73;4.37;;;;;;;;;;5052346;28;20198;-81
2022/02/14 00:51:29;;;;;;;7.50;4.87;;;;;;;;;;5051823;28;20317;-82
2022/02/14 00:53:56;;;;;;;4.77;3.83;;;;;;;;;;5051977;28;20272;-81
2022/02/14 00:56:24;;;;;;;3.43;3.13;;;;;;;;;;5051880;28;20285;-81
2022/02/14 00:58:51;;;;;;;2.70;2.30;;;;;;;;;;5051938;28;20194;-82
2022/02/14 01:01:20;;;;;;;4.03;2.53;;;;;;;;;;5051950;28;20285;-81
2022/02/14 01:03:47;;;;;;;4.30;2.57;;;;;;;;;;5052092;28;20225;-82
2022/02/14 01:06:14;;;;;;;8.87;4.63;;;;;;;;;;5052100;28;20217;-83
2022/02/14 01:08:42;;;;;;;10.97;6.77;;;;;;;;;;5052100;28;20193;-82
2022/02/14 01:11:09;;;;;;;9.93;5.90;;;;;;;;;;5052181;28;20201;-82
2022/02/14 01:13:36;;;;;;;5.53;4.70;;;;;;;;;;5051887;28;20704;-82
2022/02/14 01:16:04;;;;;;;7.17;4.20;;;;;;;;;;5051656;28;20241;-82
2022/02/14 01:18:33;;;;;;;6.57;3.33;;;;;;;;;;5052327;28;20286;-81
2022/02/14 01:21:00;;;;;;;5.30;4.07;;;;;;;;;;5051746;28;20288;-82
2022/02/14 01:23:28;;;;;;;3.60;3.23;;;;;;;;;;5051719;28;20702;-82
2022/02/14 01:25:55;;;;;;;2.80;2.37;;;;;;;;;;5051918;28;20725;-82
2022/02/14 01:28:22;;;;;;;2.30;2.10;;;;;;;;;;5051764;28;20204;-82
2022/02/14 01:30:49;;;;;;;2.60;2.40;;;;;;;;;;5051935;28;20226;-82
2022/02/14 01:33:17;;;;;;;8.37;6.43;;;;;;;;;;5051872;28;20678;-81
2022/02/14 01:35:46;;;;;;;5.23;3.87;;;;;;;;;;5051585;28;20296;-81
2022/02/14 01:38:13;;;;;;;5.97;4.70;;;;;;;;;;5051876;28;20630;-81
2022/02/14 01:40:40;;;;;;;3.57;2.93;;;;;;;;;;5051819;28;20198;-81
2022/02/14 01:43:07;;;;;;;2.40;2.20;;;;;;;;;;5051449;28;20222;-82
2022/02/14 01:45:35;;;;;;;2.87;2.33;;;;;;;;;;5051457;28;20205;-82
2022/02/14 01:48:02;;;;;;;5.40;2.70;;;;;;;;;;5051514;28;20194;-82
2022/02/14 01:50:29;;;;;;;6.27;4.10;;;;;;;;;;5051749;28;20579;-82
2022/02/14 01:52:58;;;;;;;6.53;4.27;;;;;;;;;;5051238;28;20324;-81
2022/02/14 01:55:25;;;;;;;6.20;4.57;;;;;;;;;;5051648;28;20281;-82
2022/02/14 01:57:52;;;;;;;7.00;5.57;;;;;;;;;;5053688;28;20288;-82
2022/02/14 02:00:21;;;;;;;7.53;5.33;;;;;;;;;;5055047;28;20201;-82
2022/02/14 02:02:49;;;;;;;8.03;4.67;;;;;;;;;;5055214;28;20198;-81
2022/02/14 02:05:16;;;;;;;9.17;3.80;;;;;;;;;;5054991;28;20200;-81
2022/02/14 02:07:45;;;;;;;4.17;3.50;;;;;;;;;;5054991;28;20289;-81
2022/02/14 02:10:13;;;;;;;5.97;3.87;;;;;;;;;;5054988;28;20204;-82
2022/02/14 02:12:49;;;;;;;5.37;3.63;;;;;;;;;;5054873;28;20204;-82
2022/02/14 02:15:17;;;;;;;7.77;3.90;;;;;;;;;;5054855;28;20190;-81
2022/02/14 02:17:44;;;;;;;11.07;6.13;;;;;;;;;;5054815;28;20296;-81
2022/02/14 02:20:14;;;;;;;10.60;7.10;;;;;;;;;;5054677;28;20198;-81
2022/02/14 02:22:42;;;;;;;5.77;4.87;;;;;;;;;;5055057;28;20713;-81
2022/02/14 02:25:12;;;;;;;5.10;3.90;;;;;;;;;;5054552;28;20221;-81
2022/02/14 02:27:39;;;;;;;5.37;3.17;;;;;;;;;;5054625;28;20204;-81
2022/02/14 02:30:08;;;;;;;3.20;2.60;;;;;;;;;;5054507;28;20194;-82
2022/02/14 02:32:36;;;;;;;2.63;2.40;;;;;;;;;;5054891;28;20610;-81
2022/02/14 02:35:04;;;;;;;7.30;2.70;;;;;;;;;;5054742;28;20230;-81
2022/02/14 02:37:32;;;;;;;2.97;2.10;;;;;;;;;;5054729;28;20276;-81
2022/02/14 02:39:59;;;;;;;6.03;2.47;;;;;;;;;;5054675;28;20253;-81
2022/02/14 02:42:28;;;;;;;4.67;2.50;;;;;;;;;;5054438;28;20208;-81
2022/02/14 02:44:55;;;;;;;4.90;2.63;;;;;;;;;;5054167;28;20672;-81
2022/02/14 02:47:24;;;;;;;2.97;2.60;;;;;;;;;;5054250;28;20200;-81
2022/02/14 02:49:52;;;;;;;3.03;2.77;;;;;;;;;;5054146;28;20297;-82
2022/02/14 02:52:20;;;;;;;5.67;3.40;;;;;;;;;;5054071;28;20233;-81
2022/02/14 02:54:49;;;;;;;3.40;2.50;;;;;;;;;;5054067;28;20233;-82
2022/02/14 02:57:16;;;;;;;3.00;2.40;;;;;;;;;;5054052;28;20204;-81
2022/02/14 02:59:45;;;;;;;3.30;2.60;;;;;;;;;;5054107;28;20289;-81
2022/02/14 03:02:13;;;;;;;3.00;2.43;;;;;;;;;;5053986;28;20297;-81
2022/02/14 03:04:41;;;;;;;2.73;2.07;;;;;;;;;;5054395;28;20293;-81
2022/02/14 03:07:08;;;;;;;2.60;2.40;;;;;;;;;;5054520;28;20187;-81
2022/02/14 03:09:35;;;;;;;3.10;2.33;;;;;;;;;;5052924;28;20212;-81
2022/02/14 03:12:03;;;;;;;6.07;2.13;;;;;;;;;;5053773;28;20289;-82
2022/02/14 03:14:30;;;;;;;2.43;2.10;;;;;;;;;;5054044;28;20197;-81
2022/02/14 03:16:58;;;;;;;12.27;8.73;;;;;;;;;;5053765;28;20197;-81
2022/02/14 03:19:26;;;;;;;3.13;2.93;;;;;;;;;;5053632;28;20197;-82
2022/02/14 03:21:55;;;;;;;2.43;2.23;;;;;;;;;;5054086;28;20230;-82
2022/02/14 03:24:22;;;;;;;2.47;2.17;;;;;;;;;;5053797;28;20225;-82
2022/02/14 03:26:49;;;;;;;4.63;3.13;;;;;;;;;;5053525;28;20680;-81
2022/02/14 03:29:17;;;;;;;4.60;3.13;;;;;;;;;;5053799;28;20201;-80
2022/02/14 03:31:44;;;;;;;4.17;3.53;;;;;;;;;;5053513;28;20620;-80
2022/02/14 03:34:13;;;;;;;4.20;3.37;;;;;;;;;;5053374;28;20194;-81
2022/02/14 03:36:41;;;;;;;2.57;2.37;;;;;;;;;;5053276;28;20198;-81
2022/02/14 03:39:08;;;;;;;2.70;2.47;;;;;;;;;;5053537;28;20198;-81
2022/02/14 03:41:35;;;;;;;3.70;2.83;;;;;;;;;;5053216;28;20288;-80
2022/02/14 03:44:03;;;;;;;3.17;2.93;;;;;;;;;;5053134;28;20717;-81
2022/02/14 03:46:30;;;;;;;4.03;2.37;;;;;;;;;;5053229;28;20245;-81
2022/02/14 03:48:57;;;;;;;3.20;2.73;;;;;;;;;;5053089;28;20708;-81
2022/02/14 03:51:26;;;;;;;2.47;1.93;;;;;;;;;;5052853;28;20241;-81
2022/02/14 03:53:53;;;;;;;3.07;2.13;;;;;;;;;;5053105;28;20201;-80
2022/02/14 03:56:20;;;;;;;2.77;2.20;;;;;;;;;;5053217;28;20200;-80
2022/02/14 03:58:47;;;;;;;3.67;2.60;;;;;;;;;;5052896;28;20200;-80
2022/02/14 04:01:14;;;;;;;3.83;2.80;;;;;;;;;;5052750;28;20198;-81
2022/02/14 04:03:42;;;;;;;5.33;3.87;;;;;;;;;;5053019;28;20277;-80
2022/02/14 04:06:09;;;;;;;3.77;3.47;;;;;;;;;;5052954;28;20852;-80
2022/02/14 04:08:38;;;;;;;5.57;3.00;;;;;;;;;;5052670;28;20289;-81
2022/02/14 04:11:05;;;;;;;4.23;2.37;;;;;;;;;;5052572;28;20290;-81
2022/02/14 04:13:32;;;;;;;3.43;3.07;;;;;;;;;;5052862;28;20208;-81
2022/02/14 04:15:59;;;;;;;9.77;7.27;;;;;;;;;;5052787;28;20202;-81
2022/02/14 04:18:27;;;;;;;9.57;8.57;;;;;;;;;;5052556;28;20200;-81
2022/02/14 04:20:54;;;;;;;8.37;6.13;;;;;;;;;;5049949;28;20600;-83
2022/02/14 04:23:21;;;;;;;6.67;4.57;;;;;;;;;;5052222;28;20190;-83
2022/02/14 04:25:52;;;;;;;4.43;2.90;;;;;;;;;;5050884;28;20214;-83
2022/02/14 04:28:19;;;;;;;3.30;2.70;;;;;;;;;;5051355;28;20667;-83
2022/02/14 04:30:46;;;;;;;9.73;6.23;;;;;;;;;;5051185;28;20201;-83
2022/02/14 04:33:14;;;;;;;17.50;11.53;;;;;;;;;;5051162;28;20289;-82
2022/02/14 04:38:33;;;;;;;18.70;15.37;;;;;;;;;;5054826;28;20260;-81
2022/02/14 04:41:01;;;;;;;15.00;13.40;;;;;;;;;;5051314;28;20193;-81
2022/02/14 04:43:29;;;;;;;22.50;18.77;;;;;;;;;;5051020;28;20201;-82
2022/02/14 04:45:56;;;;;;;9.00;7.90;;;;;;;;;;5050870;28;20225;-81
2022/02/14 04:48:23;;;;;;;23.37;18.47;;;;;;;;;;5051083;28;20752;-81
2022/02/14 04:50:50;;;;;;;19.03;14.87;;;;;;;;;;5050896;28;20204;-82
2022/02/14 04:53:18;;;;;;;18.60;16.50;;;;;;;;;;5050552;28;20247;-82
2022/02/14 04:55:45;;;;;;;18.83;12.73;;;;;;;;;;5050916;28;20233;-81
2022/02/14 04:58:13;;;;;;;21.67;16.27;;;;;;;;;;5050811;28;20750;-82
2022/02/14 05:00:41;;;;;;;23.47;17.17;;;;;;;;;;5050744;28;20198;-81
2022/02/14 05:03:08;;;;;;;20.27;14.33;;;;;;;;;;5051074;28;20204;-82
2022/02/14 05:05:35;;;;;;;20.80;13.37;;;;;;;;;;5050678;28;20226;-82
2022/02/14 05:08:02;;;;;;;26.03;19.20;;;;;;;;;;5050949;28;20193;-81
2022/02/14 05:10:30;;;;;;;17.13;12.37;;;;;;;;;;5050757;28;20200;-82
2022/02/14 05:12:57;;;;;;;11.80;10.03;;;;;;;;;;5050895;28;20288;-82
2022/02/14 05:15:26;;;;;;;9.60;8.43;;;;;;;;;;5050605;28;20599;-81
2022/02/14 05:17:53;;;;;;;14.83;13.23;;;;;;;;;;5050948;28;20290;-82
2022/02/14 05:20:20;;;;;;;34.23;24.97;;;;;;;;;;5051957;28;20198;-82
2022/02/14 05:22:47;;;;;;;39.83;28.00;;;;;;;;;;5052512;28;20541;-82
2022/02/14 05:25:15;;;;;;;56.77;35.87;;;;;;;;;;5051466;28;20221;-82
2022/02/14 05:27:42;;;;;;;37.10;25.40;;;;;;;;;;5052002;28;20653;-82
2022/02/14 05:30:11;;;;;;;37.37;25.57;;;;;;;;;;5051728;28;20194;-82
2022/02/14 05:32:39;;;;;;;42.63;24.17;;;;;;;;;;5053654;28;20186;-82
2022/02/14 05:35:07;;;;;;;30.23;20.80;;;;;;;;;;5055503;28;20197;-82
2022/02/14 05:37:34;;;;;;;31.80;21.50;;;;;;;;;;5055436;28;20285;-82
2022/02/14 05:40:01;;;;;;;22.57;17.40;;;;;;;;;;5055591;28;20194;-82
2022/02/14 05:42:29;;;;;;;31.00;18.10;;;;;;;;;;5055431;28;20193;-82
2022/02/14 05:44:56;;;;;;;25.73;16.93;;;;;;;;;;5055844;28;20229;-82
2022/02/14 05:47:23;;;;;;;21.73;15.63;;;;;;;;;;5055307;28;20293;-82
2022/02/14 05:49:52;;;;;;;23.97;17.53;;;;;;;;;;5055230;28;20190;-82
2022/02/14 05:52:19;;;;;;;21.23;15.67;;;;;;;;;;5055073;28;20559;-82
2022/02/14 05:54:46;;;;;;;23.67;14.73;;;;;;;;;;5055187;28;20197;-82
2022/02/14 05:57:14;;;;;;;31.17;21.10;;;;;;;;;;5054843;28;20206;-82
2022/02/14 05:59:41;;;;;;;34.53;25.80;;;;;;;;;;5055160;28;20276;-82
2022/02/14 06:02:08;;;;;;;32.13;20.63;;;;;;;;;;5055358;28;20658;-82
2022/02/14 06:04:35;;;;;;;20.43;14.53;;;;;;;;;;5054953;28;20222;-82
2022/02/14 06:07:04;;;;;;;18.47;12.33;;;;;;;;;;5054937;28;20204;-82
2022/02/14 06:09:32;;;;;;;39.40;25.77;;;;;;;;;;5054982;28;20203;-82
2022/02/14 06:11:59;;;;;;;20.97;17.17;;;;;;;;;;5055109;28;20205;-82
2022/02/14 06:14:27;;;;;;;18.60;13.70;;;;;;;;;;5054848;28;20245;-82
2022/02/14 06:16:54;;;;;;;25.70;17.80;;;;;;;;;;5055055;28;20201;-82
2022/02/14 06:19:21;;;;;;;27.30;18.60;;;;;;;;;;5054721;28;20197;-82
2022/02/14 06:21:49;;;;;;;93.90;52.13;;;;;;;;;;5054728;28;20201;-82
2022/02/14 06:24:18;;;;;;;86.00;52.57;;;;;;;;;;5054551;28;20194;-82
2022/02/14 06:26:45;;;;;;;52.50;31.17;;;;;;;;;;5054683;28;20198;-82
2022/02/14 06:29:13;;;;;;;32.93;21.67;;;;;;;;;;5054592;28;20194;-83
2022/02/14 06:31:40;;;;;;;28.90;20.83;;;;;;;;;;5054864;28;20259;-82
2022/02/14 06:34:07;;;;;;;34.60;26.73;;;;;;;;;;5054445;28;20198;-83
2022/02/14 06:36:34;;;;;;;29.10;20.87;;;;;;;;;;5054736;28;20236;-83
2022/02/14 06:39:03;;;;;;;20.77;16.13;;;;;;;;;;5054472;28;20229;-83
2022/02/14 06:41:32;;;;;;;18.50;12.70;;;;;;;;;;5054653;28;20551;-83
2022/02/14 06:43:59;;;;;;;12.77;10.20;;;;;;;;;;5052925;28;20284;-84
2022/02/14 06:46:26;;;;;;;18.67;14.03;;;;;;;;;;5054197;28;20695;-84
2022/02/14 06:48:54;;;;;;;24.17;17.10;;;;;;;;;;5054368;28;20202;-84
2022/02/14 06:51:21;;;;;;;38.27;29.80;;;;;;;;;;5054043;28;20321;-85
2022/02/14 06:53:48;;;;;;;33.60;22.20;;;;;;;;;;5054562;28;20639;-86
2022/02/14 06:56:15;;;;;;;16.30;13.33;;;;;;;;;;5054679;28;20289;-86
2022/02/14 06:58:44;;;;;;;15.80;11.10;;;;;;;;;;5054351;28;20202;-86
2022/02/14 07:01:12;;;;;;;22.73;14.27;;;;;;;;;;5054221;28;20288;-87
2022/02/14 07:03:39;;;;;;;14.57;10.40;;;;;;;;;;5054480;28;20196;-86
2022/02/14 07:06:07;;;;;;;11.27;6.07;;;;;;;;;;5054439;28;20685;-87
2022/02/14 07:08:34;;;;;;;7.70;7.00;;;;;;;;;;5054551;28;20197;-87
2022/02/14 07:11:01;;;;;;;8.27;7.47;;;;;;;;;;5054348;28;20204;-87
2022/02/14 07:13:29;;;;;;;6.33;5.73;;;;;;;;;;5054353;28;20217;-87
2022/02/14 07:15:57;;;;;;;5.43;4.00;;;;;;;;;;5054129;28;20198;-87
2022/02/14 07:18:26;;;;;;;7.10;3.80;;;;;;;;;;5054350;28;20236;-87
2022/02/14 07:20:53;;;;;;;18.50;15.33;;;;;;;;;;5054057;28;20202;-86
2022/02/14 07:23:20;;;;;;;7.97;7.17;;;;;;;;;;5053991;28;20693;-87
2022/02/14 07:25:48;;;;;;;17.67;13.30;;;;;;;;;;5054604;28;20569;-87
2022/02/14 07:28:15;;;;;;;21.60;13.87;;;;;;;;;;5054069;28;20210;-87
2022/02/14 07:30:43;;;;;;;11.03;7.03;;;;;;;;;;5054088;28;20619;-87
2022/02/14 07:33:11;;;;;;;12.77;10.60;;;;;;;;;;5053863;28;20186;-87
2022/02/14 07:35:39;;;;;;;13.57;8.83;;;;;;;;;;5054271;28;20225;-87
2022/02/14 07:38:06;;;;;;;15.70;9.57;;;;;;;;;;5053953;28;20690;-87
2022/02/14 07:40:34;;;;;;;10.43;8.53;;;;;;;;;;5053632;28;20732;-87
2022/02/14 07:43:01;;;;;;;4.00;3.70;;;;;;;;;;5053887;28;20225;-87
2022/02/14 07:45:29;;;;;;;5.37;4.73;;;;;;;;;;5053644;28;20268;-87
2022/02/14 07:47:56;;;;;;;6.80;3.87;;;;;;;;;;5053787;28;20635;-87
2022/02/14 07:50:26;;;;;;;4.37;3.43;;;;;;;;;;5053656;28;20202;-87
2022/02/14 07:52:54;;;;;;;5.57;3.63;;;;;;;;;;5053027;28;20225;-87
2022/02/14 07:55:21;;;;;;;3.73;3.33;;;;;;;;;;5053798;28;20244;-87
2022/02/14 07:57:48;;;;;;;4.47;3.93;;;;;;;;;;5053339;28;20190;-87
2022/02/14 08:00:17;;;;;;;6.37;3.70;;;;;;;;;;5053435;28;20736;-88
2022/02/14 08:02:44;;;;;;;9.70;5.70;;;;;;;;;;5053559;28;20651;-87
2022/02/14 08:05:12;;;;;;;4.90;4.40;;;;;;;;;;5053408;28;20241;-87
2022/02/14 08:07:41;;;;;;;4.87;3.00;;;;;;;;;;5053268;28;20289;-87
2022/02/14 08:10:09;;;;;;;6.83;3.50;;;;;;;;;;5053843;28;20631;-87
2022/02/14 08:12:37;;;;;;;3.93;3.53;;;;;;;;;;5053293;28;20658;-87
2022/02/14 08:15:06;;;;;;;9.37;8.13;;;;;;;;;;5053311;28;20202;-87
2022/02/14 08:17:34;;;;;;;4.73;3.87;;;;;;;;;;5052992;28;20204;-87
2022/02/14 08:20:01;;;;;;;9.10;6.83;;;;;;;;;;5053256;28;20579;-87
2022/02/14 08:22:28;;;;;;;8.03;3.90;;;;;;;;;;5053293;28;20654;-88
2022/02/14 08:24:57;;;;;;;7.30;6.23;;;;;;;;;;5053190;28;20208;-88
2022/02/14 08:27:25;;;;;;;5.00;4.03;;;;;;;;;;5053210;28;20208;-88
2022/02/14 08:29:52;;;;;;;4.93;3.63;;;;;;;;;;5052942;28;20201;-88
2022/02/14 08:32:19;;;;;;;6.23;5.30;;;;;;;;;;5053039;28;20283;-88
2022/02/14 08:34:48;;;;;;;3.90;3.50;;;;;;;;;;5051807;28;20200;-87
2022/02/14 08:37:16;;;;;;;4.33;3.93;;;;;;;;;;5052743;28;20237;-87
2022/02/14 08:39:43;;;;;;;4.73;3.70;;;;;;;;;;5053012;28;20214;-88
2022/02/14 08:42:14;;;;;;;5.37;4.00;;;;;;;;;;5052784;28;20232;-88
2022/02/14 08:44:41;;;;;;;6.27;3.80;;;;;;;;;;5052844;28;20218;-88
2022/02/14 08:47:09;;;;;;;5.60;4.63;;;;;;;;;;5052642;28;20675;-87
2022/02/14 08:49:37;;;;;;;8.23;5.23;;;;;;;;;;5052706;28;20604;-88
2022/02/14 08:52:05;;;;;;;8.07;5.30;;;;;;;;;;5052375;28;20226;-88
2022/02/14 08:54:32;;;;;;;7.57;5.40;;;;;;;;;;5052622;28;20198;-89
2022/02/14 08:57:00;;;;;;;11.53;6.53;;;;;;;;;;5052533;28;20617;-88
2022/02/14 08:59:28;;;;;;;8.70;5.90;;;;;;;;;;5052398;28;20198;-88
2022/02/14 09:01:56;;;;;;;6.70;4.23;;;;;;;;;;5052254;28;20197;-89
2022/02/14 09:04:25;;;;;;;6.97;4.40;;;;;;;;;;5052536;28;20193;-89
2022/02/14 09:06:52;;;;;;;8.37;4.10;;;;;;;;;;5051766;28;20243;-88
2022/02/14 09:09:20;;;;;;;19.13;5.17;;;;;;;;;;5052272;28;20193;-89
2022/02/14 09:11:48;;;;;;;4.60;4.20;;;;;;;;;;5052296;28;20333;-89
2022/02/14 09:14:15;;;;;;;5.10;3.93;;;;;;;;;;5052320;28;20193;-88
2022/02/14 09:16:46;;;;;;;3.63;3.33;;;;;;;;;;5052589;28;20638;-89
2022/02/14 09:19:13;;;;;;;4.83;4.30;;;;;;;;;;5052036;28;20186;-88
2022/02/14 09:21:42;;;;;;;7.13;4.80;;;;;;;;;;5052216;28;20750;-88
2022/02/14 09:24:12;;;;;;;6.07;5.23;;;;;;;;;;5052257;28;20201;-86
2022/02/14 09:26:40;;;;;;;11.77;5.43;;;;;;;;;;5052644;28;20298;-89
2022/02/14 09:29:08;;;;;;;7.63;5.47;;;;;;;;;;5052122;28;20293;-88
2022/02/14 09:31:35;;;;;;;12.07;7.50;;;;;;;;;;5052480;28;20252;-86
2022/02/14 09:34:04;;;;;;;8.47;6.17;;;;;;;;;;5052147;28;20202;-87
2022/02/14 09:36:32;;;;;;;6.80;5.83;;;;;;;;;;5052037;28;20190;-87
2022/02/14 09:38:59;;;;;;;21.80;13.23;;;;;;;;;;5052308;28;20205;-87
2022/02/14 09:41:27;;;;;;;14.90;10.90;;;;;;;;;;5052232;28;20198;-87
2022/02/14 09:43:54;;;;;;;8.63;5.57;;;;;;;;;;5052248;28;20289;-86
2022/02/14 09:46:22;;;;;;;10.47;7.77;;;;;;;;;;5052109;28;20658;-87
2022/02/14 09:48:50;;;;;;;8.33;6.80;;;;;;;;;;5052025;28;20204;-87
2022/02/14 09:51:19;;;;;;;7.67;6.30;;;;;;;;;;5051645;28;20229;-87
2022/02/14 09:53:46;;;;;;;9.87;7.77;;;;;;;;;;5051907;28;20281;-86
2022/02/14 09:56:13;;;;;;;6.60;5.90;;;;;;;;;;5051897;28;20285;-86
2022/02/14 09:58:41;;;;;;;11.03;8.53;;;;;;;;;;5052131;28;20289;-87
2022/02/14 10:01:08;;;;;;;6.97;5.63;;;;;;;;;;5052010;28;20290;-87
2022/02/14 10:03:35;;;;;;;7.20;6.50;;;;;;;;;;5051966;28;20222;-87
2022/02/14 10:06:04;;;;;;;8.07;5.70;;;;;;;;;;5051793;28;20221;-87
2022/02/14 10:08:35;;;;;;;6.57;5.53;;;;;;;;;;5051898;28;20194;-87
2022/02/14 10:11:14;;;;;;;14.20;8.63;;;;;;;;;;5051943;28;20212;-87
2022/02/14 10:13:42;;;;;;;12.53;7.17;;;;;;;;;;5052001;28;20323;-87
2022/02/14 10:16:11;;;;;;;7.87;6.73;;;;;;;;;;5051840;28;20280;-87
2022/02/14 10:18:39;;;;;;;7.90;6.47;;;;;;;;;;5053777;28;20263;-87
2022/02/14 10:21:25;;;;;;;7.03;6.33;;;;;;;;;;5055706;28;20280;-87
2022/02/14 10:24:02;;;;;;;11.73;7.87;;;;;;;;;;5055684;28;20190;-88
2022/02/14 10:26:30;;;;;;;7.20;5.13;;;;;;;;;;5055098;28;20209;-86
2022/02/14 10:28:58;;;;;;;6.83;6.13;;;;;;;;;;5055212;28;20194;-87
2022/02/14 10:31:25;;;;;;;6.23;5.67;;;;;;;;;;5055628;28;20257;-87
2022/02/14 10:33:54;;;;;;;10.00;7.03;;;;;;;;;;5055270;28;20190;-87
2022/02/14 10:36:29;;;;;;;34.43;17.87;;;;;;;;;;5055008;28;20252;-87
2022/02/14 10:38:57;;;;;;;35.07;18.93;;;;;;;;;;5055142;28;20190;-87
2022/02/14 10:41:28;;;;;;;33.30;21.57;;;;;;;;;;5055107;28;20747;-87
2022/02/14 10:44:05;;;;;;;11.77;7.10;;;;;;;;;;5054947;28;20236;-87
2022/02/14 10:46:32;;;;;;;8.77;6.67;;;;;;;;;;5055303;28;20312;-87
2022/02/14 10:49:02;;;;;;;16.67;11.33;;;;;;;;;;5054830;28;20208;-87
2022/02/14 10:51:29;;;;;;;8.67;7.50;;;;;;;;;;5054874;28;20234;-87
2022/02/14 10:53:58;;;;;;;9.47;6.87;;;;;;;;;;5055144;28;20182;-87
2022/02/14 10:56:27;;;;;;;8.80;5.70;;;;;;;;;;5054968;28;20209;-88
2022/02/14 10:59:11;;;;;;;7.87;7.00;;;;;;;;;;5054906;28;20198;-87
2022/02/14 11:01:40;;;;;;;8.40;7.10;;;;;;;;;;5054639;28;20194;-87
2022/02/14 11:04:08;;;;;;;9.07;6.60;;;;;;;;;;5054753;28;20197;-87
2022/02/14 11:06:37;;;;;;;8.00;6.00;;;;;;;;;;5054333;28;20805;-87
2022/02/14 11:09:06;;;;;;;7.57;6.67;;;;;;;;;;5054441;28;20201;-87
2022/02/14 11:11:38;;;;;;;13.77;8.80;;;;;;;;;;5054539;28;20197;-87
2022/02/14 11:14:06;;;;;;;11.17;8.07;;;;;;;;;;5054574;28;20278;-87
2022/02/14 11:16:38;;;;;;;8.00;5.57;;;;;;;;;;5054643;28;20201;-87
2022/02/14 11:19:06;;;;;;;6.53;5.80;;;;;;;;;;5054677;28;20186;-87
2022/02/14 11:21:34;;;;;;;7.23;5.20;;;;;;;;;;5054177;28;20205;-87
2022/02/14 11:24:22;;;;;;;9.47;5.23;;;;;;;;;;5054502;28;20647;-87
2022/02/14 11:27:00;;;;;;;10.50;6.67;;;;;;;;;;5051159;28;20222;-87
2022/02/14 11:29:39;;;;;;;7.97;5.00;;;;;;;;;;5053935;28;20186;-87
2022/02/14 11:32:20;;;;;;;5.20;4.73;;;;;;;;;;5053937;28;20182;-87
2022/02/14 11:35:01;;;;;;;7.10;5.50;;;;;;;;;;5054213;28;20192;-87
2022/02/14 11:37:50;;;;;;;5.53;4.97;;;;;;;;;;5054471;28;20190;-86
2022/02/14 11:40:40;;;;;;;7.00;4.47;;;;;;;;;;5053770;28;20289;-87
2022/02/14 11:43:22;;;;;;;5.97;5.03;;;;;;;;;;5053851;28;20190;-88
2022/02/14 11:46:17;;;;;;;7.30;5.70;;;;;;;;;;5053752;28;20229;-87
2022/02/14 11:48:45;;;;;;;7.77;4.83;;;;;;;;;;5054102;28;20213;-87
2022/02/14 11:51:14;;;;;;;8.83;4.20;;;;;;;;;;5053724;28;20336;-87
2022/02/14 11:53:44;;;;;;;12.27;6.77;;;;;;;;;;5053687;28;20191;-87
2022/02/14 11:56:27;;;;;;;7.50;4.53;;;;;;;;;;5053469;28;20237;-87
2022/02/14 11:59:07;;;;;;;9.70;5.87;;;;;;;;;;5053316;28;20289;-88
2022/02/14 12:01:36;;;;;;;9.47;5.93;;;;;;;;;;5053370;28;20182;-87
2022/02/14 12:04:38;;;;;;;7.20;4.27;;;;;;;;;;5053339;28;20197;-88
2022/02/14 12:07:19;;;;;;;9.07;6.77;;;;;;;;;;5047808;28;20228;-87
2022/02/14 12:10:18;;;;;;;7.30;5.27;;;;;;;;;;5053507;28;20251;-87
2022/02/14 12:13:10;;;;;;;14.37;7.10;;;;;;;;;;5053249;28;20276;-88
2022/02/14 12:21:21;;;;;;;9.17;5.10;;;;;;;;;;5053416;28;20189;-87
2022/02/14 12:23:50;;;;;;;9.03;7.20;;;;;;;;;;5053404;28;20193;-87
2022/02/14 12:26:19;;;;;;;6.90;5.47;;;;;;;;;;5053124;28;20764;-88
2022/02/14 12:29:31;;;;;;;9.33;6.43;;;;;;;;;;5053150;28;20261;-87
2022/02/14 12:31:42;;;;;;;5.90;5.27;;;;;;;;;;5052497;28;20194;-87
2022/02/14 12:34:09;;;;;;;5.27;4.27;;;;;;;;;;5052691;28;20219;-87
2022/02/14 12:36:37;;;;;;;6.73;4.33;;;;;;;;;;5052966;28;20222;-87
2022/02/14 12:39:04;;;;;;;5.87;4.53;;;;;;;;;;5052704;28;20289;-88
2022/02/14 12:41:31;;;;;;;4.60;4.27;;;;;;;;;;5052824;28;20665;-87
2022/02/14 12:43:59;;;;;;;5.17;4.67;;;;;;;;;;5052946;28;20288;-88
2022/02/14 12:46:28;;;;;;;6.40;5.03;;;;;;;;;;5052714;28;20196;-88
2022/02/14 12:48:58;;;;;;;5.20;4.70;;;;;;;;;;5052832;28;20193;-87
2022/02/14 12:51:26;;;;;;;6.67;4.47;;;;;;;;;;5052713;28;20233;-87
2022/02/14 12:53:54;;;;;;;6.70;4.40;;;;;;;;;;5052604;28;20304;-87
2022/02/14 12:56:23;;;;;;;5.87;4.23;;;;;;;;;;5052518;28;20277;-87
2022/02/14 12:58:52;;;;;;;8.30;4.40;;;;;;;;;;5052638;28;20202;-88
2022/02/14 13:01:21;;;;;;;4.30;3.90;;;;;;;;;;5052934;28;20238;-88
2022/02/14 13:03:58;;;;;;;7.67;5.73;;;;;;;;;;5052792;28;20304;-88
2022/02/14 13:06:48;;;;;;;12.50;8.70;;;;;;;;;;5052367;28;20189;-87
2022/02/14 13:09:23;;;;;;;8.03;4.20;;;;;;;;;;5047240;28;20244;-87
2022/02/14 13:11:52;;;;;;;6.60;4.33;;;;;;;;;;5052586;28;20610;-88
2022/02/14 13:14:31;;;;;;;9.97;6.73;;;;;;;;;;5052449;28;20204;-88
2022/02/14 13:16:59;;;;;;;6.67;5.10;;;;;;;;;;5052369;28;20197;-88
2022/02/14 13:19:27;;;;;;;6.10;4.67;;;;;;;;;;5052282;28;20194;-88
2022/02/14 13:21:55;;;;;;;5.07;4.23;;;;;;;;;;5052561;28;20216;-88
2022/02/14 13:24:23;;;;;;;7.50;5.40;;;;;;;;;;5052135;28;20201;-88
2022/02/14 13:27:06;;;;;;;7.70;6.10;;;;;;;;;;5052346;28;20589;-88
2022/02/14 13:29:41;;;;;;;5.90;5.03;;;;;;;;;;5052459;28;20596;-89
2022/02/14 13:32:10;;;;;;;22.83;14.93;;;;;;;;;;5052516;28;20653;-88
2022/02/14 13:34:49;;;;;;;15.33;9.17;;;;;;;;;;5052284;28;20197;-88
2022/02/14 13:37:16;;;;;;;8.90;5.40;;;;;;;;;;5052126;28;20221;-88
2022/02/14 13:39:44;;;;;;;14.20;7.80;;;;;;;;;;5052280;28;20194;-88
2022/02/14 13:42:19;;;;;;;7.07;5.67;;;;;;;;;;5052086;28;20202;-88
2022/02/14 13:44:56;;;;;;;7.60;5.73;;;;;;;;;;5052092;28;20219;-88
2022/02/14 13:47:23;;;;;;;7.27;6.57;;;;;;;;;;5052175;28;20213;-88
2022/02/14 13:49:53;;;;;;;13.23;7.97;;;;;;;;;;5052371;28;20229;-88
2022/02/14 13:52:25;;;;;;;16.43;11.47;;;;;;;;;;5051971;28;20469;-89
2022/02/14 13:55:00;;;;;;;12.07;10.17;;;;;;;;;;5055992;28;20634;-88
2022/02/14 13:57:28;;;;;;;9.17;7.33;;;;;;;;;;5055924;28;20641;-88
2022/02/14 13:59:55;;;;;;;24.70;13.83;;;;;;;;;;5055718;28;20204;-88
2022/02/14 14:02:23;;;;;;;21.87;14.80;;;;;;;;;;5055903;28;20256;-88
2022/02/14 14:04:52;;;;;;;16.00;10.87;;;;;;;;;;5055851;28;20218;-89
2022/02/14 14:07:21;;;;;;;12.37;7.23;;;;;;;;;;5055679;28;20222;-88
2022/02/14 14:09:50;;;;;;;22.20;15.10;;;;;;;;;;5055636;28;20190;-88
2022/02/14 14:12:19;;;;;;;10.03;7.90;;;;;;;;;;5055808;28;20202;-88
2022/02/14 14:14:47;;;;;;;13.23;11.43;;;;;;;;;;5055629;28;20222;-88
2022/02/14 14:17:16;;;;;;;28.37;22.47;;;;;;;;;;5055514;28;20217;-88
2022/02/14 14:19:45;;;;;;;20.30;13.40;;;;;;;;;;5055441;28;20205;-88
2022/02/14 14:22:15;;;;;;;14.27;12.83;;;;;;;;;;5055571;28;20205;-88
2022/02/14 14:24:42;;;;;;;21.00;17.17;;;;;;;;;;5055803;28;20277;-88
2022/02/14 14:27:10;;;;;;;8.70;7.30;;;;;;;;;;5055334;28;20217;-87
2022/02/14 14:29:38;;;;;;;18.57;13.97;;;;;;;;;;5055091;28;20213;-88
2022/02/14 14:32:06;;;;;;;11.47;10.27;;;;;;;;;;5055196;28;20277;-88
2022/02/14 14:34:33;;;;;;;12.63;9.87;;;;;;;;;;5054986;28;20186;-88
2022/02/14 14:37:01;;;;;;;8.20;6.93;;;;;;;;;;5055068;28;20280;-88
2022/02/14 14:39:30;;;;;;;10.90;7.70;;;;;;;;;;5054880;28;20198;-87
2022/02/14 14:41:57;;;;;;;10.50;6.20;;;;;;;;;;5054848;28;20212;-88
2022/02/14 14:44:26;;;;;;;11.17;7.77;;;;;;;;;;5054768;28;20194;-88
2022/02/14 14:46:54;;;;;;;11.30;9.80;;;;;;;;;;5054596;28;20205;-87
2022/02/14 14:49:21;;;;;;;10.73;8.57;;;;;;;;;;5054890;28;20209;-87
2022/02/14 14:51:49;;;;;;;11.83;10.27;;;;;;;;;;5054588;28;20257;-87
2022/02/14 14:54:17;;;;;;;12.77;10.40;;;;;;;;;;5054838;28;20674;-88
2022/02/14 14:56:45;;;;;;;14.70;12.37;;;;;;;;;;5054895;28;20280;-87